createdAt,value
2023-01-29T00:00:16.964Z,9.10
2023-01-29T00:02:47.854Z,9.80
2023-01-29T00:05:28.015Z,9.88
2023-01-29T00:07:57.502Z,9.20
2023-01-29T00:10:27.437Z,10.07
2023-01-29T00:12:56.004Z,10.73
2023-01-29T00:15:25.234Z,10.90
2023-01-29T00:17:54.825Z,10.85
2023-01-29T00:20:23.276Z,11.05
2023-01-29T00:22:51.394Z,10.93
2023-01-29T00:25:19.656Z,10.57
2023-01-29T00:27:47.934Z,11.50
2023-01-29T00:30:19.799Z,10.55
2023-01-29T00:32:48.375Z,11.95
2023-01-29T00:35:18.102Z,10.93
2023-01-29T00:37:46.144Z,11.82
2023-01-29T00:40:15.043Z,11.45
2023-01-29T00:43:03.343Z,11.68
2023-01-29T00:45:31.577Z,12.32
2023-01-29T00:48:00.908Z,11.48
2023-01-29T00:50:33.421Z,12.13
2023-01-29T00:53:01.732Z,13.15
2023-01-29T00:55:29.784Z,11.55
2023-01-29T00:58:00.101Z,12.13
2023-01-29T01:00:28.119Z,13.48
2023-01-29T01:03:07.500Z,13.30
2023-01-29T01:05:39.110Z,13.50
2023-01-29T01:08:28.650Z,12.75
2023-01-29T01:11:00.179Z,13.52
2023-01-29T01:13:28.311Z,14.18
2023-01-29T01:15:56.530Z,12.88
2023-01-29T01:18:24.843Z,12.65
2023-01-29T01:20:58.957Z,14.73
2023-01-29T01:23:28.008Z,13.20
2023-01-29T01:25:56.400Z,12.77
2023-01-29T01:28:30.150Z,13.23
2023-01-29T01:30:59.497Z,14.63
2023-01-29T01:33:27.627Z,14.65
2023-01-29T01:35:56.993Z,13.15
2023-01-29T01:38:26.539Z,13.63
2023-01-29T01:40:54.502Z,14.30
2023-01-29T01:43:22.866Z,15.38
2023-01-29T01:45:51.055Z,14.55
2023-01-29T01:48:21.232Z,14.07
2023-01-29T01:50:52.084Z,13.65
2023-01-29T01:53:24.105Z,14.23
2023-01-29T01:55:55.128Z,14.02
2023-01-29T01:58:25.732Z,14.73
2023-01-29T02:00:54.817Z,15.23
2023-01-29T02:03:41.573Z,13.65
2023-01-29T02:06:28.541Z,15.35
2023-01-29T02:09:19.201Z,13.38
2023-01-29T02:11:48.322Z,15.52
2023-01-29T02:14:16.967Z,14.13
2023-01-29T02:16:46.611Z,13.85
2023-01-29T02:19:21.009Z,14.38
2023-01-29T02:22:10.421Z,14.75
2023-01-29T02:25:09.869Z,13.25
2023-01-29T02:28:12.528Z,13.70
2023-01-29T02:30:46.148Z,14.55
2023-01-29T02:33:22.559Z,14.75
2023-01-29T02:35:57.088Z,14.57
2023-01-29T02:38:31.308Z,13.93
2023-01-29T02:41:03.324Z,14.75
2023-01-29T02:43:35.457Z,14.23
2023-01-29T02:46:11.113Z,14.60
2023-01-29T02:48:43.601Z,15.75
2023-01-29T02:51:18.788Z,13.65
2023-01-29T02:53:54.929Z,13.68
2023-01-29T02:56:25.577Z,14.40
2023-01-29T02:58:58.284Z,15.02
2023-01-29T03:01:32.058Z,13.90
2023-01-29T03:04:05.001Z,14.13
2023-01-29T03:06:36.230Z,14.55
2023-01-29T03:09:07.064Z,13.37
2023-01-29T03:11:42.054Z,15.13
2023-01-29T03:14:13.419Z,14.82
2023-01-29T03:16:47.901Z,15.88
2023-01-29T03:19:20.202Z,14.75
2023-01-29T03:21:51.666Z,16.13
2023-01-29T03:24:39.530Z,15.30
2023-01-29T03:27:28.196Z,15.38
2023-01-29T03:30:15.543Z,14.63
2023-01-29T03:32:46.477Z,15.52
2023-01-29T03:35:21.024Z,14.88
2023-01-29T03:37:50.159Z,15.82
2023-01-29T03:40:18.767Z,15.75
2023-01-29T03:42:55.113Z,16.38
2023-01-29T03:45:28.342Z,17.38
2023-01-29T03:48:08.679Z,16.10
2023-01-29T03:50:41.695Z,14.43
2023-01-29T03:53:19.628Z,16.10
2023-01-29T03:55:55.392Z,14.40
2023-01-29T03:58:27.355Z,15.48
2023-01-29T04:00:57.314Z,15.07
2023-01-29T04:03:33.378Z,16.48
2023-01-29T04:06:09.707Z,15.57
2023-01-29T04:08:42.048Z,16.88
2023-01-29T04:11:15.350Z,16.85
2023-01-29T04:13:44.772Z,15.35
2023-01-29T04:16:17.183Z,16.05
2023-01-29T04:18:48.368Z,14.95
2023-01-29T04:21:17.006Z,15.07
2023-01-29T04:23:45.379Z,17.05
2023-01-29T04:26:34.411Z,16.67
2023-01-29T04:29:17.369Z,16.75
2023-01-29T04:31:51.638Z,15.80
2023-01-29T04:34:25.318Z,18.02
2023-01-29T04:37:02.599Z,16.30
2023-01-29T04:39:37.269Z,17.17
2023-01-29T04:42:13.049Z,17.50
2023-01-29T04:44:45.915Z,17.48
2023-01-29T04:47:19.972Z,16.88
2023-01-29T04:49:56.618Z,18.75
2023-01-29T04:52:33.746Z,18.45
2023-01-29T04:55:07.786Z,16.60
2023-01-29T04:57:43.519Z,17.30
2023-01-29T05:00:16.707Z,17.33
2023-01-29T05:02:46.553Z,18.52
2023-01-29T05:05:17.685Z,17.95
2023-01-29T05:07:47.194Z,18.58
2023-01-29T05:10:17.455Z,18.38
2023-01-29T05:12:51.237Z,17.83
2023-01-29T05:15:24.864Z,19.05
2023-01-29T05:17:56.444Z,18.58
2023-01-29T05:20:28.394Z,18.10
2023-01-29T05:22:56.867Z,19.10
2023-01-29T05:25:26.247Z,19.17
2023-01-29T05:28:06.367Z,20.67
2023-01-29T05:30:36.696Z,19.05
2023-01-29T05:33:06.159Z,21.30
2023-01-29T05:35:36.759Z,20.90
2023-01-29T05:38:04.873Z,20.92
2023-01-29T05:40:32.952Z,22.10
2023-01-29T05:43:01.156Z,21.52
2023-01-29T05:45:29.298Z,22.30
2023-01-29T05:47:59.545Z,20.70
2023-01-29T05:50:28.489Z,21.67
2023-01-29T05:53:02.313Z,20.30
2023-01-29T05:55:30.697Z,20.85
2023-01-29T05:57:58.915Z,21.63
2023-01-29T06:00:28.175Z,22.42
2023-01-29T06:02:56.693Z,22.75
2023-01-29T06:05:25.228Z,21.50
2023-01-29T06:07:55.024Z,21.17
2023-01-29T06:10:24.940Z,21.90
2023-01-29T06:12:54.289Z,21.35
2023-01-29T06:15:22.804Z,22.33
2023-01-29T06:17:52.456Z,22.25
2023-01-29T06:20:20.771Z,23.33
2023-01-29T06:22:48.761Z,22.05
2023-01-29T06:25:17.262Z,21.50
2023-01-29T06:27:47.345Z,22.27
2023-01-29T06:30:16.861Z,23.10
2023-01-29T06:32:45.455Z,22.98
2023-01-29T06:35:13.469Z,22.73
2023-01-29T06:37:42.265Z,21.80
2023-01-29T06:40:11.676Z,23.27
2023-01-29T06:42:40.205Z,22.88
2023-01-29T06:45:12.124Z,22.10
2023-01-29T06:47:41.268Z,22.73
2023-01-29T06:50:10.886Z,21.95
2023-01-29T06:52:39.135Z,23.75
2023-01-29T06:55:08.070Z,24.25
2023-01-29T06:57:36.090Z,23.33
2023-01-29T07:00:06.370Z,23.60
2023-01-29T07:02:36.158Z,23.50
2023-01-29T07:05:05.380Z,26.42
2023-01-29T07:07:36.814Z,23.83
2023-01-29T07:10:05.525Z,24.88
2023-01-29T07:12:33.552Z,25.10
2023-01-29T07:15:01.512Z,25.02
2023-01-29T07:17:29.572Z,25.63
2023-01-29T07:19:58.961Z,23.52
2023-01-29T07:22:27.308Z,24.77
2023-01-29T07:24:55.575Z,25.98
2023-01-29T07:27:24.234Z,25.05
2023-01-29T07:29:52.569Z,25.88
2023-01-29T07:32:20.649Z,23.17
2023-01-29T07:34:48.871Z,23.55
2023-01-29T07:37:18.475Z,25.48
2023-01-29T07:39:47.710Z,24.75
2023-01-29T07:42:17.002Z,23.50
2023-01-29T07:44:44.993Z,25.48
2023-01-29T07:47:15.217Z,23.00
2023-01-29T07:49:44.971Z,22.70
2023-01-29T07:52:13.244Z,25.10
2023-01-29T07:54:45.012Z,24.13
2023-01-29T07:57:14.928Z,26.40
2023-01-29T07:59:45.182Z,23.77
2023-01-29T08:02:13.363Z,23.58
2023-01-29T08:04:41.609Z,24.25
2023-01-29T08:07:10.214Z,24.55
2023-01-29T08:09:39.346Z,24.70
2023-01-29T08:12:09.176Z,25.98
2023-01-29T08:14:37.477Z,23.55
2023-01-29T08:17:05.551Z,24.02
2023-01-29T08:19:33.664Z,23.27
2023-01-29T08:22:03.784Z,24.13
2023-01-29T08:24:47.377Z,23.15
2023-01-29T08:27:21.918Z,24.10
2023-01-29T08:29:50.040Z,23.00
2023-01-29T08:32:18.085Z,22.90
2023-01-29T08:34:46.334Z,24.13
2023-01-29T08:37:14.302Z,22.65
2023-01-29T08:42:15.363Z,24.60
2023-01-29T08:44:44.778Z,22.67
2023-01-29T08:47:12.854Z,21.27
2023-01-29T08:49:40.813Z,22.80
2023-01-29T08:52:08.949Z,21.33
2023-01-29T08:54:39.006Z,21.83
2023-01-29T08:57:07.178Z,22.42
2023-01-29T08:59:35.161Z,23.23
2023-01-29T09:02:04.634Z,20.23
2023-01-29T09:04:32.668Z,21.27
2023-01-29T09:07:04.143Z,19.80
2023-01-29T09:09:33.236Z,19.55
2023-01-29T09:12:01.325Z,18.98
2023-01-29T09:14:29.485Z,19.15
2023-01-29T09:16:58.487Z,19.10
2023-01-29T09:19:28.427Z,19.77
2023-01-29T09:21:56.548Z,18.17
2023-01-29T09:24:24.687Z,18.88
2023-01-29T09:26:52.867Z,18.17
2023-01-29T09:29:21.436Z,18.75
2023-01-29T09:31:49.711Z,16.98
2023-01-29T09:34:17.901Z,17.35
2023-01-29T09:36:47.600Z,17.15
2023-01-29T09:39:15.557Z,18.27
2023-01-29T09:41:51.635Z,15.90
2023-01-29T09:44:25.408Z,16.38
2023-01-29T09:46:53.930Z,16.25
2023-01-29T09:49:26.139Z,16.25
2023-01-29T09:54:31.112Z,17.38
2023-01-29T09:56:59.510Z,16.02
2023-01-29T09:59:30.889Z,15.07
2023-01-29T10:02:07.446Z,11.80
2023-01-29T10:04:46.042Z,12.65
2023-01-29T10:07:34.325Z,13.13
2023-01-29T10:10:16.576Z,12.98
2023-01-29T10:13:02.483Z,14.48
2023-01-29T10:15:43.745Z,12.18
2023-01-29T10:18:31.473Z,13.18
2023-01-29T10:21:07.635Z,13.90
2023-01-29T10:23:39.485Z,12.38
2023-01-29T10:26:11.612Z,12.38
2023-01-29T10:28:46.051Z,13.18
2023-01-29T10:31:20.754Z,13.10
2023-01-29T10:34:02.593Z,12.82
2023-01-29T10:36:35.593Z,12.30
2023-01-29T10:39:05.339Z,13.43
2023-01-29T10:41:53.935Z,12.98
2023-01-29T10:44:32.887Z,12.98
2023-01-29T10:47:11.730Z,12.77
2023-01-29T10:49:55.575Z,12.52
2023-01-29T10:52:33.331Z,12.63
2023-01-29T10:55:10.474Z,11.90
2023-01-29T10:57:53.336Z,12.52
2023-01-29T11:00:24.360Z,12.68
2023-01-29T11:02:53.144Z,14.15
2023-01-29T11:05:26.864Z,12.43
2023-01-29T11:08:05.063Z,12.77
2023-01-29T11:10:41.668Z,12.98
2023-01-29T11:13:14.280Z,13.10
2023-01-29T11:15:42.598Z,12.27
2023-01-29T11:18:16.482Z,13.00
2023-01-29T11:20:45.672Z,12.65
2023-01-29T11:23:28.278Z,12.82
2023-01-29T11:25:59.109Z,13.15
2023-01-29T11:28:38.084Z,12.88
2023-01-29T11:31:17.162Z,12.73
2023-01-29T11:33:47.073Z,12.88
2023-01-29T11:36:23.821Z,11.95
2023-01-29T11:39:10.093Z,12.77
2023-01-29T11:41:46.518Z,12.43
2023-01-29T11:44:20.634Z,14.50
2023-01-29T11:46:49.246Z,12.20
2023-01-29T11:49:24.767Z,13.13
2023-01-29T11:51:54.358Z,13.70
2023-01-29T11:54:27.510Z,13.52
2023-01-29T11:56:57.528Z,12.57
2023-01-29T11:59:44.199Z,13.55
2023-01-29T12:02:24.373Z,12.68
2023-01-29T12:04:52.837Z,12.40
2023-01-29T12:07:21.418Z,13.73
2023-01-29T12:09:54.944Z,12.95
2023-01-29T12:12:39.402Z,12.88
2023-01-29T12:15:19.779Z,14.00
2023-01-29T12:18:02.123Z,12.80
2023-01-29T12:20:34.797Z,13.32
2023-01-29T12:23:09.131Z,14.40
2023-01-29T12:25:47.392Z,13.70
2023-01-29T12:28:33.218Z,13.35
2023-01-29T12:31:21.062Z,13.68
2023-01-29T12:33:53.524Z,13.23
2023-01-29T12:36:26.553Z,15.25
2023-01-29T12:38:56.330Z,12.48
2023-01-29T12:41:34.320Z,14.05
2023-01-29T12:44:08.195Z,13.77
2023-01-29T12:46:41.101Z,13.52
2023-01-29T12:49:14.890Z,13.98
2023-01-29T12:51:50.152Z,15.07
2023-01-29T12:54:22.543Z,13.85
2023-01-29T12:56:53.235Z,13.77
2023-01-29T12:59:29.205Z,13.65
2023-01-29T13:02:00.742Z,13.40
2023-01-29T13:04:36.616Z,12.80
2023-01-29T13:07:12.978Z,12.65
2023-01-29T13:09:45.378Z,12.23
2023-01-29T13:12:16.388Z,14.15
2023-01-29T13:14:49.089Z,13.50
2023-01-29T13:17:24.486Z,14.30
2023-01-29T13:19:54.689Z,14.63
2023-01-29T13:22:26.146Z,14.55
2023-01-29T13:25:04.147Z,13.88
2023-01-29T13:27:35.167Z,13.98
2023-01-29T13:30:06.486Z,13.93
2023-01-29T13:32:37.329Z,15.80
2023-01-29T13:35:13.563Z,15.43
2023-01-29T13:37:43.758Z,16.30
2023-01-29T13:40:21.068Z,16.48
2023-01-29T13:42:50.220Z,16.08
2023-01-29T13:45:22.266Z,16.70
2023-01-29T13:47:51.786Z,16.40
2023-01-29T13:50:22.721Z,16.83
2023-01-29T13:52:55.273Z,18.13
2023-01-29T13:55:31.439Z,18.98
2023-01-29T13:58:00.789Z,18.40
2023-01-29T14:01:01.484Z,19.83
2023-01-29T14:04:04.562Z,18.40
2023-01-29T14:06:47.873Z,18.85
2023-01-29T14:09:57.064Z,19.60
2023-01-29T14:12:44.194Z,19.58
2023-01-29T14:15:21.179Z,20.58
2023-01-29T14:18:13.774Z,20.25
2023-01-29T14:20:55.237Z,21.90
2023-01-29T14:23:46.809Z,20.48
2023-01-29T14:26:25.676Z,20.38
2023-01-29T14:28:57.644Z,22.42
2023-01-29T14:31:45.900Z,20.45
2023-01-29T14:34:21.177Z,18.95
2023-01-29T14:36:55.366Z,20.85
2023-01-29T14:39:31.966Z,22.25
2023-01-29T14:42:00.961Z,21.77
2023-01-29T14:44:50.263Z,21.15
2023-01-29T14:47:20.236Z,20.23
2023-01-29T14:49:54.220Z,21.42
2023-01-29T14:52:27.676Z,21.90
2023-01-29T14:55:01.682Z,21.10
2023-01-29T14:57:31.441Z,20.70
2023-01-29T15:00:05.329Z,20.65
2023-01-29T15:02:39.402Z,18.55
2023-01-29T15:05:13.202Z,22.27
2023-01-29T15:07:48.085Z,21.25
2023-01-29T15:10:22.685Z,21.02
2023-01-29T15:12:54.124Z,20.95
2023-01-29T15:15:29.098Z,20.98
2023-01-29T15:18:00.090Z,21.83
2023-01-29T15:20:32.069Z,22.27
2023-01-29T15:23:03.156Z,22.88
2023-01-29T15:25:36.310Z,21.50
2023-01-29T15:28:08.556Z,22.33
2023-01-29T15:30:39.854Z,21.90
2023-01-29T15:33:10.436Z,22.58
2023-01-29T15:35:42.324Z,22.40
2023-01-29T15:38:16.865Z,22.58
2023-01-29T15:40:54.291Z,22.85
2023-01-29T15:43:24.897Z,21.15
2023-01-29T15:45:55.577Z,23.98
2023-01-29T15:48:32.874Z,22.95
2023-01-29T15:51:05.146Z,22.23
2023-01-29T15:56:03.385Z,21.52
2023-01-29T15:58:32.581Z,23.67
2023-01-29T16:01:02.301Z,20.35
2023-01-29T16:03:32.820Z,21.52
2023-01-29T16:06:03.806Z,21.63
2023-01-29T16:08:32.137Z,22.43
2023-01-29T16:11:02.076Z,20.50
2023-01-29T16:13:31.666Z,21.38
2023-01-29T16:16:02.869Z,20.45
2023-01-29T16:18:34.518Z,22.00
2023-01-29T16:21:08.807Z,21.05
2023-01-29T16:23:41.869Z,19.42
2023-01-29T16:26:14.780Z,20.50
2023-01-29T16:28:44.903Z,19.05
2023-01-29T16:31:14.249Z,22.15
2023-01-29T16:33:45.544Z,17.90
2023-01-29T16:36:19.664Z,20.38
2023-01-29T16:38:50.158Z,19.20
2023-01-29T16:41:30.955Z,20.15
2023-01-29T16:44:00.693Z,18.35
2023-01-29T16:46:34.715Z,17.73
2023-01-29T16:49:04.308Z,19.35
2023-01-29T16:51:38.676Z,18.70
2023-01-29T16:54:10.874Z,19.30
2023-01-29T16:59:08.505Z,17.48
2023-01-29T17:01:37.321Z,17.42
2023-01-29T17:04:10.210Z,17.85
2023-01-29T17:06:42.078Z,18.05
2023-01-29T17:09:22.864Z,20.42
2023-01-29T17:11:56.028Z,18.63
2023-01-29T17:14:26.099Z,18.23
2023-01-29T17:16:57.147Z,20.02
2023-01-29T17:19:26.001Z,17.30
2023-01-29T17:21:57.009Z,18.80
2023-01-29T17:24:25.217Z,18.88
2023-01-29T17:26:53.533Z,17.02
2023-01-29T17:29:24.792Z,17.60
2023-01-29T17:31:53.077Z,18.40
2023-01-29T17:34:21.317Z,19.27
2023-01-29T17:36:49.425Z,18.80
2023-01-29T17:39:20.887Z,17.55
2023-01-29T17:41:51.531Z,16.95
2023-01-29T17:44:20.005Z,17.25
2023-01-29T17:46:48.692Z,17.92
2023-01-29T17:49:23.341Z,17.05
2023-01-29T17:51:52.741Z,16.70
2023-01-29T17:54:25.633Z,16.73
2023-01-29T17:56:54.510Z,19.15
2023-01-29T17:59:24.493Z,18.38
2023-01-29T18:01:53.457Z,18.27
2023-01-29T18:04:21.775Z,17.90
2023-01-29T18:06:51.711Z,16.65
2023-01-29T18:09:22.343Z,18.45
2023-01-29T18:11:53.400Z,16.88
2023-01-29T18:14:22.027Z,16.75
2023-01-29T18:16:50.227Z,16.80
2023-01-29T18:19:22.089Z,18.45
2023-01-29T18:21:51.162Z,15.70
2023-01-29T18:24:20.437Z,16.27
2023-01-29T18:26:51.599Z,17.50
2023-01-29T18:29:19.651Z,17.15
2023-01-29T18:31:49.422Z,16.73
2023-01-29T18:34:18.783Z,16.50
2023-01-29T18:36:47.923Z,15.82
2023-01-29T18:39:16.146Z,16.77
2023-01-29T18:41:44.839Z,15.05
2023-01-29T18:44:14.620Z,17.73
2023-01-29T18:46:42.811Z,14.63
2023-01-29T18:49:11.686Z,15.52
2023-01-29T18:51:42.450Z,15.77
2023-01-29T18:54:13.113Z,14.90
2023-01-29T18:57:11.615Z,14.40
2023-01-29T18:59:31.169Z,15.98
2023-01-29T19:02:00.972Z,15.43
2023-01-29T19:04:29.823Z,14.50
2023-01-29T19:06:58.590Z,15.23
2023-01-29T19:09:27.156Z,15.63
2023-01-29T19:11:56.329Z,16.40
2023-01-29T19:14:24.512Z,15.45
2023-01-29T19:16:53.836Z,14.07
2023-01-29T19:19:23.323Z,14.43
2023-01-29T19:21:53.466Z,12.98
2023-01-29T19:24:22.086Z,13.15
2023-01-29T19:26:51.843Z,13.32
2023-01-29T19:29:20.365Z,15.43
2023-01-29T19:31:48.961Z,13.02
2023-01-29T19:34:22.548Z,12.48
2023-01-29T19:36:50.632Z,11.77
2023-01-29T19:39:19.322Z,11.77
2023-01-29T19:41:49.459Z,11.02
2023-01-29T19:44:18.132Z,12.02
2023-01-29T19:46:47.192Z,11.05
2023-01-29T19:49:15.377Z,10.63
2023-01-29T19:51:48.983Z,10.30
2023-01-29T19:54:17.558Z,11.35
2023-01-29T19:56:47.393Z,11.27
2023-01-29T19:59:15.896Z,10.73
2023-01-29T20:01:44.134Z,9.77
2023-01-29T20:04:12.347Z,11.35
2023-01-29T20:06:40.599Z,10.43
2023-01-29T20:09:10.377Z,10.00
2023-01-29T20:11:38.742Z,10.20
2023-01-29T20:14:06.777Z,11.00
2023-01-29T20:16:36.954Z,10.05
2023-01-29T20:19:14.051Z,10.48
2023-01-29T20:21:45.828Z,10.15
2023-01-29T20:24:15.483Z,10.13
2023-01-29T20:26:45.189Z,10.93
2023-01-29T20:29:18.528Z,11.15
2023-01-29T20:31:47.361Z,10.50
2023-01-29T20:34:16.080Z,10.40
2023-01-29T20:36:53.568Z,9.80
2023-01-29T20:39:22.915Z,10.80
2023-01-29T20:41:51.066Z,10.27
2023-01-29T20:44:20.406Z,9.73
2023-01-29T20:46:48.716Z,9.05
2023-01-29T20:49:17.252Z,10.90
2023-01-29T20:51:45.720Z,9.43
2023-01-29T20:54:14.095Z,11.45
2023-01-29T20:56:47.959Z,10.70
2023-01-29T20:59:17.702Z,10.45
2023-01-29T21:01:47.758Z,10.80
2023-01-29T21:04:15.864Z,11.32
2023-01-29T21:06:45.808Z,11.10
2023-01-29T21:09:13.914Z,10.45
2023-01-29T21:11:44.923Z,10.70
2023-01-29T21:14:14.917Z,10.63
2023-01-29T21:16:44.105Z,11.10
2023-01-29T21:19:14.423Z,12.45
2023-01-29T21:21:45.767Z,11.15
2023-01-29T21:24:15.228Z,12.15
2023-01-29T21:26:44.885Z,11.35
2023-01-29T21:29:13.526Z,11.02
2023-01-29T21:31:41.672Z,12.63
2023-01-29T21:34:10.529Z,12.32
2023-01-29T21:36:39.935Z,11.45
2023-01-29T21:39:17.405Z,11.30
2023-01-29T21:42:05.305Z,12.65
2023-01-29T21:44:33.933Z,10.95
2023-01-29T21:47:12.302Z,11.02
2023-01-29T21:49:42.702Z,11.52
2023-01-29T21:52:12.954Z,12.50
2023-01-29T21:54:41.789Z,10.40
2023-01-29T21:57:14.962Z,10.45
2023-01-29T21:59:43.521Z,11.48
2023-01-29T22:02:16.649Z,10.75
2023-01-29T22:04:45.127Z,11.20
2023-01-29T22:07:13.978Z,10.68
2023-01-29T22:09:42.229Z,11.02
2023-01-29T22:12:12.036Z,11.90
2023-01-29T22:14:41.702Z,10.80
2023-01-29T22:17:10.643Z,10.82
2023-01-29T22:19:38.979Z,10.70
2023-01-29T22:22:07.768Z,10.80
2023-01-29T22:24:36.021Z,10.40
2023-01-29T22:27:04.148Z,10.25
2023-01-29T22:29:33.739Z,10.73
2023-01-29T22:32:03.195Z,11.45
2023-01-29T22:34:31.236Z,10.88
2023-01-29T22:36:59.259Z,10.82
2023-01-29T22:39:27.508Z,10.77
2023-01-29T22:41:55.609Z,9.93
2023-01-29T22:44:23.606Z,10.18
2023-01-29T22:46:53.310Z,10.85
2023-01-29T22:49:23.730Z,10.75
2023-01-29T22:52:09.999Z,11.48
2023-01-29T22:54:39.640Z,10.60
2023-01-29T22:57:10.228Z,9.75
2023-01-29T22:59:38.452Z,10.32
2023-01-29T23:02:08.827Z,11.05
2023-01-29T23:04:37.092Z,11.70
2023-01-29T23:07:05.407Z,11.93
2023-01-29T23:09:34.119Z,10.05
2023-01-29T23:12:02.496Z,10.25
2023-01-29T23:14:30.493Z,10.20
2023-01-29T23:16:58.547Z,10.48
2023-01-29T23:19:27.935Z,10.15
2023-01-29T23:21:55.957Z,10.77
2023-01-29T23:24:26.313Z,11.55
2023-01-29T23:27:13.257Z,10.70
2023-01-29T23:29:41.981Z,11.70
2023-01-29T23:32:10.297Z,11.65
2023-01-29T23:34:40.581Z,11.05
2023-01-29T23:37:09.208Z,11.98
2023-01-29T23:39:38.737Z,11.75
2023-01-29T23:42:06.934Z,11.13
2023-01-29T23:44:36.820Z,12.23
2023-01-29T23:47:05.022Z,11.43
2023-01-29T23:49:33.174Z,11.45
2023-01-29T23:52:03.152Z,11.82
2023-01-29T23:54:31.435Z,11.93
2023-01-29T23:56:59.413Z,11.65
2023-01-29T23:59:28.284Z,11.98
